Nearby METAR Reports

 

KMTN - Baltimore/Martin, Maryland, USA
Distance from station: SSE 8mi, 13km
Updated: Tue, 30-Jun-2015 2:45pm EDT
Mostly cloudy
Mostly cloudy
 Wind from SSE
Wind: SSE 18 mph , 30 km/h, Gust: 23 mph , 37 km/h
Temperature: 84°F , 29°C
Heat Index: 92°F , 33°C
Dew Point: 75°F , 24°C
Humidity: 74%
Barometer: 29.86 inHg , 1011.2 hPa
Clouds: Mostly cloudy
Visibility: 10 miles , 16 km
Cloud details: Mostly cloudy 3500 ft
2015/06/30 18:45 KMTN 301845Z 16016G20KT 10SM BKN035 29/24 A2986
KDMH - Baltimore/Dwntwn, Maryland, USA
Distance from station: SW 12mi, 19km
Updated: Tue, 30-Jun-2015 2:54pm EDT

 
Temperature: 88°F , 31°C
Heat Index: 91°F , 33°C
Dew Point: 66°F , 19°C
Humidity: 49%
Barometer: 29.85 inHg , 1010.8 hPa
2015/06/30 18:54 KDMH 301854Z AUTO 31/19 A2985 RMK AO1 SLP107 T03060194
 
KBWI - Balto/Wash Intl, Maryland, USA
Distance from station: SSW 20mi, 33km
Updated: Tue, 30-Jun-2015 3:07pm EDT
Thunderstorm, Mostly cloudy
Thunderstorm, Mostly cloudy
 Wind from S
Wind: S 9 mph , 15 km/h, Gust: 16 mph , 26 km/h
Temperature: 82°F , 28°C
Heat Index: 84°F , 29°C
Dew Point: 66°F , 19°C
Humidity: 58%
Barometer: 29.82 inHg , 1009.8 hPa
Summary: Thunderstorm
Clouds: Mostly cloudy
Visibility: 8 miles , 13 km
Cloud details: Partly cloudy 4100 ft
Partly cloudy 7000 ft
Mostly cloudy 13000 ft
Mostly cloudy 25000 ft
2015/06/30 19:07 KBWI 301907Z 17008G14KT 8SM TS SCT041CB SCT070 BKN130 BKN250 28/19 A2982 RMK AO2 TSB06 FRQ LTGCG E-SE TS E-SE MOV NE
KDMW - Carroll Cnty, Maryland, USA
Distance from station: WNW 30mi, 48km
Updated: Tue, 30-Jun-2015 3:35pm EDT
Partly cloudy
Partly cloudy
 Wind from S
Wind: S 12 mph , 19 km/h, Gust: 16 mph , 26 km/h
Temperature: 88°F , 31°C
Heat Index: 91°F , 33°C
Dew Point: 66°F , 19°C
Humidity: 49%
Barometer: 29.84 inHg , 1010.5 hPa
Clouds: Partly cloudy
Visibility: 10 miles , 16 km
Cloud details: Partly cloudy 3600 ft
2015/06/30 19:35 KDMW 301935Z AUTO 18010G14KT 10SM SCT036 31/19 A2984 RMK AO2 LTG DSNT E AND SE
 
KNAK - Annapolis/Naval, Maryland, USA
Distance from station: S 30mi, 48km
Updated: Tue, 30-Jun-2015 2:54pm EDT
Partly cloudy
Partly cloudy
 Wind from S
Wind: S 15 mph , 24 km/h
Temperature: 81°F , 27°C
Heat Index: 85°F , 29°C
Dew Point: 70°F , 21°C
Humidity: 70%
Barometer: 29.84 inHg , 1010.5 hPa
Clouds: Partly cloudy
Visibility: 10 miles , 16 km
Cloud details: Few Clouds 5000 ft
Partly cloudy 6500 ft
Partly cloudy 10000 ft
2015/06/30 18:54 KNAK 301854Z AUTO 17013KT 10SM FEW050 SCT065 SCT100 27/21 A2984 RMK AO2 SLP107 T02720211
KW29 - Stevensville, Maryland, USA
Distance from station: SSE 31mi, 50km
Updated: Tue, 30-Jun-2015 3:35pm EDT

 Wind from SSE
Wind: SSE 14 mph , 22 km/h, Gust: 21 mph , 33 km/h
Temperature: 86°F , 30°C
Heat Index: 89°F , 32°C
Dew Point: 68°F , 20°C
Humidity: 55%
Barometer: 29.83 inHg , 1010.2 hPa
Visibility: 10 miles , 16 km
2015/06/30 19:35 KW29 301935Z AUTO 16012G18KT 10SM 30/20 A2983 RMK AO1 LTG DSNT N AND NW
 
KCGS - College Park, Maryland, USA
Distance from station: SW 38mi, 61km
Updated: Tue, 30-Jun-2015 3:30pm EDT
Clear
Clear
 Wind from SSW
Wind: SSW 9 mph , 15 km/h, Gust: 17 mph , 28 km/h
Temperature: 88°F , 31°C
Heat Index: 90°F , 32°C
Dew Point: 64°F , 18°C
Humidity: 46%
Barometer: 29.82 inHg , 1009.8 hPa
Clouds: Clear
Visibility: 10 miles , 16 km
2015/06/30 19:30 KCGS 301930Z AUTO 21008G15KT 150V230 10SM CLR 31/18 A2982 RMK AO1
KGAI - Gaithersburg, Maryland, USA
Distance from station: WSW 40mi, 65km
Updated: Tue, 30-Jun-2015 3:35pm EDT
Partly cloudy
Partly cloudy
 Wind from SSW
Wind: SSW 7 mph , 11 km/h
Temperature: 84°F , 29°C
Heat Index: 86°F , 30°C
Dew Point: 66°F , 19°C
Humidity: 55%
Barometer: 29.87 inHg , 1011.5 hPa
Clouds: Partly cloudy
Visibility: 10 miles , 16 km
Cloud details: Few Clouds 4400 ft
Partly cloudy 5000 ft
2015/06/30 19:35 KGAI 301935Z AUTO 21006KT 10SM FEW044 SCT050 29/19 A2987 RMK AO1
 
KTHV - York, Pennsylvania, USA
Distance from station: NNW 40mi, 65km
Updated: Tue, 30-Jun-2015 2:53pm EDT
Few Clouds
Few Clouds
 Wind from SSW
Wind: SSW 12 mph , 19 km/h
Temperature: 84°F , 29°C
Heat Index: 87°F , 31°C
Dew Point: 68°F , 20°C
Humidity: 58%
Barometer: 29.83 inHg , 1010.2 hPa
Clouds: Few Clouds
Visibility: 10 miles , 16 km
Cloud details: Few Clouds 4100 ft
2015/06/30 18:53 KTHV 301853Z AUTO 21010KT 10SM FEW041 29/20 A2983 RMK AO2 LTG DSNT W SLP100 T02890200
KFDK - Frederick, Maryland, USA
Distance from station: W 47mi, 75km
Updated: Tue, 30-Jun-2015 2:55pm EDT
Clear
Clear
 Wind from SW
Wind: SW 8 mph , 13 km/h
Temperature: 86°F , 30°C
Heat Index: 92°F , 33°C
Dew Point: 72°F , 22°C
Humidity: 62%
Barometer: 29.85 inHg , 1010.8 hPa
Clouds: Clear
Visibility: 10 miles , 16 km
2015/06/30 18:55 KFDK 301855Z 22007KT 10SM SKC 30/22 A2985
 
KESN - Easton/Newnam, Maryland, USA
Distance from station: SSE 48mi, 78km
Updated: Tue, 30-Jun-2015 2:50pm EDT
Partly cloudy
Partly cloudy
 Wind from SSW
Wind: SSW 15 mph , 24 km/h, Gust: 18 mph , 30 km/h
Temperature: 86°F , 30°C
Heat Index: 93°F , 34°C
Dew Point: 73°F , 23°C
Humidity: 66%
Barometer: 29.89 inHg , 1012.2 hPa
Clouds: Partly cloudy
Visibility: 10 miles , 16 km
Cloud details: Partly cloudy 3600 ft
Partly cloudy 5000 ft
2015/06/30 18:50 KESN 301850Z 20013G16KT 10SM SCT036 SCT050 30/23 A2989
KDCA - Washington/Natl, Washington D.c., USA
Distance from station: SW 49mi, 79km
Updated: Tue, 30-Jun-2015 2:52pm EDT
Partly cloudy
Partly cloudy
 Wind from S
Wind: S 12 mph , 19 km/h
Temperature: 88°F , 31°C
Heat Index: 93°F , 34°C
Dew Point: 70°F , 21°C
Humidity: 55%
Barometer: 29.84 inHg , 1010.5 hPa
Clouds: Partly cloudy
Visibility: 10 miles , 16 km
Cloud details: Partly cloudy 4500 ft
Partly cloudy 16000 ft
2015/06/30 18:52 KDCA 301852Z 18010KT 10SM SCT045 SCT160 31/21 A2984 RMK AO2 SLP103 CB DSNT NE MOV NE T03110211
 
KLNS - Lancaster, Pennsylvania, USA
Distance from station: N 49mi, 79km
Updated: Tue, 30-Jun-2015 2:53pm EDT
Mostly cloudy
Mostly cloudy
 Wind from S
Wind: S 16 mph , 26 km/h
Temperature: 77°F , 25°C
Dew Point: 66°F , 19°C
Humidity: 69%
Barometer: 29.85 inHg , 1010.8 hPa
Clouds: Mostly cloudy
Visibility: 10 miles , 16 km
Cloud details: Mostly cloudy 4000 ft
2015/06/30 18:53 KLNS 301853Z 17014KT 10SM BKN040 25/19 A2985 RMK AO2 LTG DSNT E AND SE SLP104 T02500189
KILG - Wilmington, Delaware, USA
Distance from station: ENE 50mi, 81km
Updated: Tue, 30-Jun-2015 3:30pm EDT
Nearby thunderstorm, Mostly cloudy
Nearby thunderstorm, Mostly cloudy
 Wind from SSE
Wind: SSE 14 mph , 22 km/h
Temperature: 81°F , 27°C
Heat Index: 85°F , 29°C
Dew Point: 70°F , 21°C
Humidity: 70%
Barometer: 29.85 inHg , 1010.8 hPa
Summary: Nearby Thunderstorm
Clouds: Mostly cloudy
Visibility: 10 miles , 16 km
Cloud details: Partly cloudy 4800 ft
Mostly cloudy 6500 ft
Mostly cloudy 9000 ft
2015/06/30 19:30 KILG 301930Z 16012KT 10SM VCTS SCT048 BKN065 BKN090 27/21 A2985 RMK AO2 LTG DSNT ALQDS RAB08E19 P0000 T02720206